createdAt,value
2023-01-13T00:01:57.172Z,26.85
2023-01-13T00:04:27.345Z,26.93
2023-01-13T00:06:57.760Z,27.04
2023-01-13T00:09:28.030Z,27.00
2023-01-13T00:11:58.542Z,27.05
2023-01-13T00:14:30.863Z,26.91
2023-01-13T00:17:01.357Z,26.70
2023-01-13T00:19:31.716Z,26.87
2023-01-13T00:22:02.300Z,26.95
2023-01-13T00:24:33.171Z,26.80
2023-01-13T00:27:03.708Z,26.86
2023-01-13T00:29:34.023Z,26.72
2023-01-13T00:32:04.650Z,26.73
2023-01-13T00:34:34.964Z,26.75
2023-01-13T00:37:05.406Z,26.73
2023-01-13T00:39:35.419Z,26.58
2023-01-13T00:42:24.632Z,26.51
2023-01-13T00:44:54.797Z,26.28
2023-01-13T00:47:25.066Z,25.92
2023-01-13T00:49:55.614Z,25.78
2023-01-13T00:52:25.610Z,25.51
2023-01-13T00:54:56.219Z,25.50
2023-01-13T00:57:26.289Z,25.53
2023-01-13T00:59:57.790Z,25.56
2023-01-13T01:02:28.555Z,25.67
2023-01-13T01:05:01.142Z,25.82
2023-01-13T01:07:31.246Z,25.85
2023-01-13T01:10:01.719Z,25.88
2023-01-13T01:12:31.083Z,25.88
2023-01-13T01:15:01.003Z,25.87
2023-01-13T01:17:31.678Z,25.75
2023-01-13T01:20:01.769Z,25.55
2023-01-13T01:22:32.555Z,25.75
2023-01-13T01:25:02.981Z,25.98
2023-01-13T01:27:33.563Z,26.02
2023-01-13T01:30:03.845Z,25.86
2023-01-13T01:32:36.278Z,25.98
2023-01-13T01:35:06.748Z,25.81
2023-01-13T01:37:37.466Z,25.91
2023-01-13T01:40:08.124Z,26.07
2023-01-13T01:42:57.033Z,26.27
2023-01-13T01:45:29.520Z,25.98
2023-01-13T01:48:05.357Z,26.03
2023-01-13T01:50:36.221Z,25.83
2023-01-13T01:53:16.649Z,25.67
2023-01-13T01:55:47.274Z,25.71
2023-01-13T01:58:22.991Z,25.95
2023-01-13T02:00:54.195Z,26.13
2023-01-13T02:03:25.279Z,25.97
2023-01-13T02:05:55.665Z,26.14
2023-01-13T02:08:26.579Z,26.06
2023-01-13T02:10:56.706Z,26.19
2023-01-13T02:13:27.252Z,26.00
2023-01-13T02:16:23.044Z,25.91
2023-01-13T02:18:56.162Z,26.01
2023-01-13T02:21:50.167Z,25.94
2023-01-13T02:24:55.756Z,26.11
2023-01-13T02:27:44.846Z,25.74
2023-01-13T02:30:49.173Z,25.86
2023-01-13T02:33:37.117Z,25.72
2023-01-13T02:36:33.268Z,25.86
2023-01-13T02:39:26.595Z,26.18
2023-01-13T02:42:26.135Z,26.20
2023-01-13T02:45:28.072Z,26.06
2023-01-13T02:48:01.192Z,26.28
2023-01-13T02:50:45.914Z,26.24
2023-01-13T02:53:35.712Z,26.06
2023-01-13T02:56:08.271Z,26.09
2023-01-13T02:58:42.443Z,26.18
2023-01-13T03:01:12.772Z,26.07
2023-01-13T03:03:45.066Z,25.85
2023-01-13T03:06:31.075Z,25.87
2023-01-13T03:09:15.758Z,25.68
2023-01-13T03:12:22.687Z,25.62
2023-01-13T03:15:17.084Z,25.60
2023-01-13T03:18:10.391Z,25.42
2023-01-13T03:20:49.441Z,25.48
2023-01-13T03:23:34.940Z,25.49
2023-01-13T03:26:19.829Z,25.81
2023-01-13T03:29:00.297Z,25.71
2023-01-13T03:31:36.291Z,25.74
2023-01-13T03:34:13.126Z,25.69
2023-01-13T03:36:47.635Z,26.00
2023-01-13T03:39:23.830Z,26.18
2023-01-13T03:42:01.170Z,26.16
2023-01-13T03:44:43.779Z,25.78
2023-01-13T03:47:56.995Z,25.54
2023-01-13T03:50:34.704Z,25.46
2023-01-13T03:53:12.274Z,25.44
2023-01-13T03:55:49.063Z,25.21
2023-01-13T03:58:32.001Z,25.21
2023-01-13T04:01:37.603Z,25.29
2023-01-13T04:04:24.429Z,25.37
2023-01-13T04:06:59.605Z,25.53
2023-01-13T04:09:42.723Z,25.40
2023-01-13T04:12:56.069Z,25.51
2023-01-13T04:15:29.592Z,25.58
2023-01-13T04:18:27.288Z,25.45
2023-01-13T04:21:00.317Z,25.71
2023-01-13T04:23:30.936Z,25.86
2023-01-13T04:26:01.700Z,25.37
2023-01-13T04:28:31.936Z,25.17
2023-01-13T04:31:02.936Z,25.01
2023-01-13T04:33:33.035Z,24.98
2023-01-13T04:36:03.649Z,24.86
2023-01-13T04:38:33.733Z,24.79
2023-01-13T04:41:03.612Z,24.79
2023-01-13T04:43:34.293Z,24.66
2023-01-13T04:46:04.539Z,24.61
2023-01-13T04:48:35.464Z,24.70
2023-01-13T04:51:05.819Z,25.04
2023-01-13T04:53:36.322Z,25.14
2023-01-13T04:56:06.817Z,25.17
2023-01-13T04:58:37.304Z,25.16
2023-01-13T05:01:07.570Z,25.45
2023-01-13T05:03:38.152Z,25.21
2023-01-13T05:06:08.540Z,25.46
2023-01-13T05:08:39.064Z,25.70
2023-01-13T05:11:28.999Z,25.76
2023-01-13T05:14:17.809Z,25.65
2023-01-13T05:17:03.733Z,25.54
2023-01-13T05:19:36.800Z,25.32
2023-01-13T05:22:25.508Z,25.16
2023-01-13T05:25:14.337Z,25.21
2023-01-13T05:27:44.387Z,25.14
2023-01-13T05:30:15.345Z,25.45
2023-01-13T05:32:46.362Z,25.54
2023-01-13T05:35:18.076Z,25.43
2023-01-13T05:37:48.889Z,25.40
2023-01-13T05:40:39.283Z,25.39
2023-01-13T05:43:22.290Z,25.38
2023-01-13T05:46:03.533Z,25.36
2023-01-13T05:48:39.503Z,25.30
2023-01-13T05:51:12.999Z,25.34
2023-01-13T05:53:43.432Z,25.42
2023-01-13T05:56:14.163Z,25.44
2023-01-13T05:58:44.179Z,25.43
2023-01-13T06:01:14.931Z,25.35
2023-01-13T06:03:45.859Z,25.41
2023-01-13T06:06:15.994Z,25.39
2023-01-13T06:08:46.440Z,25.47
2023-01-13T06:11:16.628Z,25.47
2023-01-13T06:13:47.195Z,25.53
2023-01-13T06:16:17.388Z,25.30
2023-01-13T06:18:48.000Z,25.48
2023-01-13T06:21:18.107Z,25.11
2023-01-13T06:23:48.679Z,24.75
2023-01-13T06:26:22.050Z,24.94
2023-01-13T06:28:52.618Z,24.99
2023-01-13T06:31:23.096Z,24.68
2023-01-13T06:33:58.714Z,24.70
2023-01-13T06:36:36.482Z,25.05
2023-01-13T06:39:07.891Z,25.11
2023-01-13T06:41:56.632Z,25.08
2023-01-13T06:44:27.153Z,25.25
2023-01-13T06:46:57.461Z,25.25
2023-01-13T06:49:28.068Z,25.25
2023-01-13T06:51:58.141Z,25.29
2023-01-13T06:54:28.917Z,25.40
2023-01-13T06:56:59.072Z,25.43
2023-01-13T06:59:29.820Z,25.39
2023-01-13T07:02:00.046Z,25.46
2023-01-13T07:04:30.698Z,25.40
2023-01-13T07:07:00.904Z,25.43
2023-01-13T07:09:31.555Z,25.48
2023-01-13T07:12:01.949Z,25.44
2023-01-13T07:14:50.839Z,25.48
2023-01-13T07:17:26.217Z,25.60
2023-01-13T07:19:56.626Z,25.61
2023-01-13T07:22:26.526Z,25.39
2023-01-13T07:24:57.843Z,25.03
2023-01-13T07:27:27.980Z,24.84
2023-01-13T07:29:58.401Z,24.64
2023-01-13T07:32:28.529Z,24.51
2023-01-13T07:35:05.668Z,24.47
2023-01-13T07:37:37.680Z,24.40
2023-01-13T07:40:09.127Z,24.31
2023-01-13T07:42:58.333Z,24.32
2023-01-13T07:45:28.959Z,24.36
2023-01-13T07:47:59.148Z,24.55
2023-01-13T07:50:29.801Z,24.56
2023-01-13T07:53:00.726Z,24.83
2023-01-13T07:55:31.476Z,24.71
2023-01-13T07:58:01.688Z,24.51
2023-01-13T08:00:32.264Z,24.74
2023-01-13T08:03:02.651Z,24.89
2023-01-13T08:05:33.421Z,24.98
2023-01-13T08:08:04.181Z,24.96
2023-01-13T08:10:34.770Z,24.61
2023-01-13T08:13:22.143Z,24.71
2023-01-13T08:15:55.608Z,24.74
2023-01-13T08:18:25.756Z,24.70
2023-01-13T08:20:56.567Z,24.50
2023-01-13T08:23:26.653Z,24.53
2023-01-13T08:26:00.730Z,24.17
2023-01-13T08:28:31.187Z,24.00
2023-01-13T08:31:03.421Z,23.88
2023-01-13T08:33:34.546Z,23.80
2023-01-13T08:36:07.839Z,23.92
2023-01-13T08:38:39.660Z,23.98
2023-01-13T08:41:12.391Z,23.95
2023-01-13T08:43:42.561Z,24.06
2023-01-13T08:46:13.541Z,24.18
2023-01-13T08:48:43.795Z,24.09
2023-01-13T08:51:14.700Z,24.10
2023-01-13T08:53:44.756Z,24.15
2023-01-13T08:56:16.132Z,24.13
2023-01-13T08:58:46.708Z,24.16
2023-01-13T09:01:23.953Z,24.24
2023-01-13T09:03:55.362Z,24.33
2023-01-13T09:06:25.687Z,24.36
2023-01-13T09:08:56.557Z,24.32
2023-01-13T09:11:52.686Z,24.41
2023-01-13T09:14:26.357Z,24.51
2023-01-13T09:16:56.672Z,24.55
2023-01-13T09:19:28.330Z,24.67
2023-01-13T09:21:59.194Z,24.75
2023-01-13T09:24:30.405Z,24.88
2023-01-13T09:27:00.502Z,25.18
2023-01-13T09:29:31.143Z,25.63
2023-01-13T09:32:01.422Z,25.85
2023-01-13T09:34:50.361Z,26.26
2023-01-13T09:37:20.625Z,26.46
2023-01-13T09:39:51.139Z,26.89
2023-01-13T09:42:55.683Z,27.32
2023-01-13T09:45:44.461Z,27.75
2023-01-13T09:48:52.867Z,27.80
2023-01-13T09:51:35.934Z,27.83
2023-01-13T09:54:17.715Z,28.14
2023-01-13T09:56:48.417Z,28.29
2023-01-13T09:59:18.552Z,28.35
2023-01-13T10:02:14.827Z,28.37
2023-01-13T10:04:44.875Z,28.24
2023-01-13T10:07:16.570Z,28.17
2023-01-13T10:09:55.110Z,27.74
2023-01-13T10:12:46.492Z,27.64
2023-01-13T10:15:24.480Z,27.63
2023-01-13T10:18:23.749Z,27.58
2023-01-13T10:21:32.148Z,27.96
2023-01-13T10:24:20.687Z,28.00
2023-01-13T10:26:56.562Z,28.18
2023-01-13T10:29:29.715Z,28.47
2023-01-13T10:32:02.071Z,28.32
2023-01-13T10:34:33.202Z,28.43
2023-01-13T10:37:09.517Z,28.49
2023-01-13T10:39:46.614Z,28.39
2023-01-13T10:42:24.085Z,28.52
2023-01-13T10:44:58.075Z,28.68
2023-01-13T10:47:33.859Z,29.22
2023-01-13T10:50:13.028Z,30.31
2023-01-13T10:53:01.090Z,31.37
2023-01-13T10:55:39.706Z,32.35
2023-01-13T10:58:22.738Z,32.74
2023-01-13T11:01:02.417Z,33.18
2023-01-13T11:03:44.656Z,33.29
2023-01-13T11:06:26.793Z,33.32
2023-01-13T11:09:04.245Z,33.59
2023-01-13T11:11:42.330Z,34.19
2023-01-13T11:14:42.954Z,34.94
2023-01-13T11:17:29.819Z,35.51
2023-01-13T11:20:13.360Z,35.89
2023-01-13T11:22:50.629Z,36.33
2023-01-13T11:25:35.066Z,36.20
2023-01-13T11:28:35.177Z,34.77
2023-01-13T11:31:10.356Z,35.25
2023-01-13T11:33:53.813Z,35.84
2023-01-13T11:36:33.607Z,35.97
2023-01-13T11:39:49.129Z,36.25
2023-01-13T11:42:36.577Z,36.28
2023-01-13T11:45:17.832Z,35.79
2023-01-13T11:47:51.595Z,35.06
2023-01-13T11:50:36.197Z,34.98
2023-01-13T11:53:17.153Z,34.79
2023-01-13T11:56:08.876Z,34.76
2023-01-13T11:59:29.156Z,34.80
2023-01-13T12:02:24.107Z,34.92
2023-01-13T12:04:57.276Z,35.06
2023-01-13T12:07:45.987Z,35.13
2023-01-13T12:10:53.550Z,35.35
2023-01-13T12:13:44.651Z,35.62
2023-01-13T12:16:27.059Z,35.91
2023-01-13T12:19:26.891Z,35.72
2023-01-13T12:22:22.287Z,36.14
2023-01-13T12:25:14.376Z,36.17
2023-01-13T12:28:15.745Z,36.00
2023-01-13T12:30:56.549Z,36.38
2023-01-13T12:33:51.535Z,36.13
2023-01-13T12:37:06.216Z,35.98
2023-01-13T12:39:45.557Z,36.56
2023-01-13T12:42:53.005Z,37.45
2023-01-13T12:45:27.139Z,38.30
2023-01-13T12:47:58.166Z,38.90
2023-01-13T12:50:28.626Z,38.76
2023-01-13T12:52:59.692Z,38.32
2023-01-13T12:55:37.588Z,38.21
2023-01-13T12:58:07.664Z,38.16
2023-01-13T13:01:02.150Z,38.08
2023-01-13T13:03:37.283Z,38.38
2023-01-13T13:06:29.908Z,39.11
2023-01-13T13:09:30.616Z,39.63
2023-01-13T13:12:51.118Z,40.83
2023-01-13T13:15:29.905Z,40.77
2023-01-13T13:18:35.503Z,41.21
2023-01-13T13:21:10.283Z,41.24
2023-01-13T13:23:51.395Z,41.47
2023-01-13T13:26:25.936Z,43.07
2023-01-13T13:28:56.416Z,43.91
2023-01-13T13:31:34.919Z,43.83
2023-01-13T13:34:23.786Z,41.86
2023-01-13T13:37:08.977Z,41.37
2023-01-13T13:40:02.616Z,41.42
2023-01-13T13:43:11.507Z,41.67
2023-01-13T13:46:10.841Z,42.53
2023-01-13T13:48:41.120Z,42.05
2023-01-13T13:51:32.492Z,41.36
2023-01-13T13:54:03.890Z,41.26
2023-01-13T13:56:41.991Z,40.54
2023-01-13T13:59:28.410Z,40.57
2023-01-13T14:02:04.599Z,40.41
2023-01-13T14:04:36.938Z,39.55
2023-01-13T14:07:21.818Z,40.06
2023-01-13T14:09:57.737Z,39.45
2023-01-13T14:12:29.175Z,38.70
2023-01-13T22:48:38.276Z,25.60
2023-01-13T22:51:14.000Z,25.33
2023-01-13T22:53:44.651Z,25.20
2023-01-13T22:56:22.088Z,25.12
2023-01-13T22:58:57.254Z,25.06
2023-01-13T23:01:31.237Z,24.99
2023-01-13T23:04:02.992Z,24.95
2023-01-13T23:06:35.459Z,24.78
2023-01-13T23:09:05.854Z,24.79
2023-01-13T23:11:36.929Z,24.80
2023-01-13T23:14:09.612Z,24.82
2023-01-13T23:16:42.206Z,24.80
2023-01-13T23:19:13.224Z,24.94
2023-01-13T23:21:44.234Z,24.79
2023-01-13T23:24:14.722Z,24.98
2023-01-13T23:26:45.415Z,25.23
2023-01-13T23:29:16.105Z,25.15
2023-01-13T23:31:48.363Z,25.23
2023-01-13T23:34:18.796Z,24.96
2023-01-13T23:36:49.765Z,25.09
2023-01-13T23:39:22.771Z,24.91
2023-01-13T23:41:53.819Z,25.01
2023-01-13T23:44:24.425Z,25.08
2023-01-13T23:46:55.049Z,25.13
2023-01-13T23:49:31.260Z,25.06
2023-01-13T23:52:01.459Z,25.20
2023-01-13T23:54:31.452Z,24.98
2023-01-13T23:57:02.418Z,24.91
2023-01-13T23:59:32.660Z,24.93
